This is the latest recevied weather packets stored in our database for station/object W7PLC. If no packets are shown the sender has not sent any weather packets the latest 10 day(s).
| Time | Temp. | Humidity | Pressure | Rain* | Wind** | Luminosity | Snow |
|---|---|---|---|---|---|---|---|
| 1777852009 | 31.67° C | 34% | 1007.8 hPa | 0 mm | - | 432 W/m² | - |
| 1777851708 | 31.67° C | 34% | 1008 hPa | 0 mm | - | 506 W/m² | - |
| 1777851404 | 31.67° C | 34% | 1007.9 hPa | 0 mm | - | 538 W/m² | - |
| 1777851099 | 31.11° C | 36% | 1007.9 hPa | 0 mm | - | 584 W/m² | - |
| 1777850797 | 31.11° C | 36% | 1008 hPa | 0 mm | - | 566 W/m² | - |
| 1777850494 | 31.67° C | 33% | 1008.2 hPa | 0 mm | - | 564 W/m² | - |
| 1777850192 | 32.22° C | 33% | 1008.2 hPa | 0 mm | - | 630 W/m² | - |
| 1777849888 | 31.11° C | 36% | 1008.2 hPa | 0 mm | - | 658 W/m² | - |
| 1777849585 | 32.22° C | 36% | 1008.2 hPa | 0 mm | - | 647 W/m² | - |
| 1777849282 | 31.67° C | 35% | 1008.4 hPa | 0 mm | - | 642 W/m² | - |
| 1777848980 | 31.67° C | 35% | 1008.6 hPa | 0 mm | - | 707 W/m² | - |
| 1777848679 | 31.11° C | 35% | 1008.6 hPa | 0 mm | - | 730 W/m² | - |
| 1777848377 | 32.22° C | 34% | 1008.5 hPa | 0 mm | - | 703 W/m² | - |
| 1777848075 | 31.67° C | 34% | 1008.6 hPa | 0 mm | - | 666 W/m² | - |
| 1777847773 | 30.56° C | 37% | 1008.7 hPa | 0 mm | - | 687 W/m² | - |
| 1777847468 | 30° C | 37% | 1008.6 hPa | 0 mm | - | 683 W/m² | - |
| 1777847166 | 30° C | 39% | 1008.6 hPa | 0 mm | - | 714 W/m² | - |
| 1777846864 | 29.44° C | 38% | 1008.9 hPa | 0 mm | - | 678 W/m² | - |
| 1777846562 | 30.56° C | 36% | 1008.8 hPa | 0 mm | - | 750 W/m² | - |
| 1777846259 | 30.56° C | 37% | 1009 hPa | 0 mm | - | 703 W/m² | - |
| 1777845955 | 28.89° C | 38% | 1008.9 hPa | 0 mm | - | 704 W/m² | - |
| 1777845652 | 28.89° C | 38% | 1009 hPa | 0 mm | - | 682 W/m² | - |
| 1777845349 | 29.44° C | 39% | 1009.4 hPa | 0 mm | - | 663 W/m² | - |
| 1777845046 | 30° C | 39% | 1009.3 hPa | 0 mm | - | 640 W/m² | - |
| 1777844744 | 29.44° C | 40% | 1009.3 hPa | 0 mm | - | 522 W/m² | - |
* Rain latest hour (hover to see other rain measurements)
** Current wind speed in m/s (hover to see current wind gust speed)